createdAt,value
2022-07-29T00:00:53.813Z,13.52
2022-07-29T00:03:20.521Z,13.50
2022-07-29T00:05:47.149Z,13.50
2022-07-29T00:08:13.652Z,13.56
2022-07-29T00:10:40.286Z,13.51
2022-07-29T00:13:07.001Z,13.45
2022-07-29T00:15:33.977Z,13.47
2022-07-29T00:18:00.575Z,13.48
2022-07-29T00:20:27.693Z,13.42
2022-07-29T00:22:54.377Z,13.38
2022-07-29T00:25:20.982Z,13.35
2022-07-29T00:27:47.699Z,13.43
2022-07-29T00:30:14.444Z,13.50
2022-07-29T00:32:41.080Z,13.54
2022-07-29T00:35:27.327Z,13.68
2022-07-29T00:37:53.822Z,13.84
2022-07-29T00:40:23.610Z,13.90
2022-07-29T00:42:52.519Z,13.85
2022-07-29T00:45:20.059Z,13.81
2022-07-29T00:47:47.470Z,13.80
2022-07-29T00:50:15.397Z,13.78
2022-07-29T00:52:43.661Z,13.70
2022-07-29T00:55:13.858Z,13.63
2022-07-29T00:57:42.645Z,13.55
2022-07-29T01:00:12.165Z,13.50
2022-07-29T01:02:38.823Z,13.55
2022-07-29T01:05:06.914Z,13.50
2022-07-29T01:07:38.243Z,13.45
2022-07-29T01:10:07.431Z,13.36
2022-07-29T01:12:35.468Z,13.30
2022-07-29T01:15:04.334Z,13.26
2022-07-29T01:17:52.429Z,13.23
2022-07-29T01:20:52.473Z,13.19
2022-07-29T01:23:40.999Z,13.14
2022-07-29T01:26:29.995Z,13.12
2022-07-29T01:29:38.788Z,13.13
2022-07-29T01:32:28.439Z,13.06
2022-07-29T01:35:01.169Z,12.96
2022-07-29T01:37:49.498Z,12.84
2022-07-29T01:40:28.110Z,12.78
2022-07-29T01:42:58.025Z,12.73
2022-07-29T01:45:33.017Z,12.70
2022-07-29T01:48:17.494Z,12.67
2022-07-29T01:50:52.988Z,12.67
2022-07-29T01:53:36.446Z,12.72
2022-07-29T01:56:05.828Z,12.76
2022-07-29T01:58:36.059Z,12.70
2022-07-29T02:01:05.252Z,12.65
2022-07-29T02:03:34.411Z,12.64
2022-07-29T02:06:04.170Z,12.74
2022-07-29T02:08:33.257Z,12.82
2022-07-29T02:11:01.638Z,12.94
2022-07-29T02:13:32.101Z,12.96
2022-07-29T02:16:00.682Z,12.93
2022-07-29T02:18:31.416Z,12.97
2022-07-29T02:21:01.829Z,12.99
2022-07-29T02:23:31.930Z,12.99
2022-07-29T02:26:18.833Z,12.96
2022-07-29T02:28:47.742Z,12.88
2022-07-29T02:31:15.562Z,12.93
2022-07-29T02:33:44.037Z,12.89
2022-07-29T02:36:11.885Z,12.92
2022-07-29T02:38:53.618Z,12.91
2022-07-29T02:41:31.189Z,12.89
2022-07-29T02:44:04.636Z,12.83
2022-07-29T02:46:35.156Z,12.83
2022-07-29T02:49:17.889Z,12.81
2022-07-29T02:51:50.417Z,12.84
2022-07-29T02:54:32.115Z,12.76
2022-07-29T02:57:04.334Z,12.71
2022-07-29T02:59:35.227Z,12.70
2022-07-29T03:02:03.521Z,12.66
2022-07-29T03:04:33.472Z,12.63
2022-07-29T03:07:01.784Z,12.61
2022-07-29T03:09:29.124Z,12.58
2022-07-29T03:11:58.076Z,12.55
2022-07-29T03:14:25.362Z,12.51
2022-07-29T03:16:53.107Z,12.49
2022-07-29T03:19:21.480Z,12.48
2022-07-29T03:21:48.263Z,12.48
2022-07-29T03:24:33.326Z,12.51
2022-07-29T03:27:00.577Z,12.51
2022-07-29T03:29:34.034Z,12.52
2022-07-29T03:32:03.379Z,12.55
2022-07-29T03:34:31.062Z,12.59
2022-07-29T03:36:57.710Z,12.65
2022-07-29T03:39:28.579Z,12.73
2022-07-29T03:41:59.448Z,12.84
2022-07-29T03:44:28.311Z,12.98
2022-07-29T03:46:59.177Z,13.36
2022-07-29T03:49:27.776Z,13.70
2022-07-29T03:51:55.025Z,14.09
2022-07-29T03:54:22.031Z,14.68
2022-07-29T03:56:53.200Z,14.95
2022-07-29T03:59:22.582Z,15.02
2022-07-29T04:01:49.928Z,15.14
2022-07-29T04:04:16.939Z,15.42
2022-07-29T04:06:46.209Z,15.72
2022-07-29T04:09:15.444Z,15.75
2022-07-29T04:11:57.039Z,16.20
2022-07-29T04:14:30.276Z,16.47
2022-07-29T04:16:56.970Z,16.73
2022-07-29T04:19:23.795Z,17.16
2022-07-29T04:21:50.572Z,17.20
2022-07-29T04:24:17.836Z,17.87
2022-07-29T04:26:46.126Z,18.77
2022-07-29T04:29:12.990Z,18.91
2022-07-29T04:31:39.555Z,19.04
2022-07-29T04:34:06.299Z,18.27
2022-07-29T04:36:33.018Z,18.20
2022-07-29T04:39:01.969Z,18.45
2022-07-29T04:41:33.016Z,19.28
2022-07-29T04:44:02.301Z,19.73
2022-07-29T04:46:29.065Z,20.04
2022-07-29T04:48:55.817Z,21.13
2022-07-29T04:51:22.500Z,22.17
2022-07-29T04:53:49.106Z,23.01
2022-07-29T04:56:15.640Z,22.60
2022-07-29T04:58:42.177Z,21.91
2022-07-29T05:01:08.764Z,21.97
2022-07-29T05:03:35.349Z,21.87
2022-07-29T05:06:02.016Z,20.46
2022-07-29T05:08:28.519Z,19.92
2022-07-29T05:10:55.138Z,19.62
2022-07-29T05:13:21.681Z,19.44
2022-07-29T05:15:49.887Z,19.62
2022-07-29T05:32:30.882Z,18.10
2022-07-29T05:34:57.981Z,18.03
2022-07-29T05:37:24.829Z,17.93
2022-07-29T05:39:56.854Z,17.68
2022-07-29T05:42:24.846Z,17.78
2022-07-29T05:44:52.014Z,17.84
2022-07-29T05:47:18.793Z,17.74
2022-07-29T05:49:45.364Z,18.07
2022-07-29T05:52:12.066Z,18.30
2022-07-29T05:54:38.710Z,19.03
2022-07-29T05:57:06.473Z,19.40
2022-07-29T05:59:39.430Z,20.26
2022-07-29T06:02:09.069Z,21.14
2022-07-29T06:04:35.782Z,21.17
2022-07-29T06:07:02.816Z,20.65
2022-07-29T06:09:29.959Z,20.96
2022-07-29T06:11:58.960Z,21.19
2022-07-29T06:14:28.883Z,21.42
2022-07-29T06:16:56.258Z,21.72
2022-07-29T06:19:23.069Z,22.00
2022-07-29T06:21:51.250Z,22.29
2022-07-29T06:24:18.754Z,22.72
2022-07-29T06:26:45.827Z,22.14
2022-07-29T06:29:12.729Z,21.91
2022-07-29T06:31:40.181Z,22.39
2022-07-29T06:34:07.027Z,22.54
2022-07-29T06:36:37.891Z,22.33
2022-07-29T06:39:07.986Z,22.73
2022-07-29T06:41:34.945Z,23.09
2022-07-29T06:44:01.495Z,22.84
2022-07-29T06:46:28.731Z,22.76
2022-07-29T06:48:55.583Z,22.17
2022-07-29T06:51:24.106Z,21.81
2022-07-29T06:53:59.322Z,21.79
2022-07-29T06:56:30.847Z,21.85
2022-07-29T06:58:57.460Z,21.92
2022-07-29T07:01:24.078Z,22.24
2022-07-29T07:03:50.754Z,23.11
2022-07-29T07:06:17.741Z,23.07
2022-07-29T07:08:44.714Z,22.78
2022-07-29T07:11:13.132Z,22.75
2022-07-29T07:13:39.774Z,22.57
2022-07-29T07:16:06.828Z,22.36
2022-07-29T07:18:33.486Z,22.57
2022-07-29T07:21:00.047Z,23.24
2022-07-29T07:23:26.617Z,23.41
2022-07-29T07:25:53.442Z,23.53
2022-07-29T07:28:24.513Z,23.63
2022-07-29T07:30:53.169Z,23.43
2022-07-29T07:33:20.865Z,23.73
2022-07-29T07:35:47.758Z,23.51
2022-07-29T07:38:14.313Z,23.52
2022-07-29T07:40:42.860Z,23.82
2022-07-29T07:43:10.567Z,23.19
2022-07-29T07:45:38.451Z,23.15
2022-07-29T07:48:05.807Z,22.89
2022-07-29T07:50:33.790Z,22.56
2022-07-29T07:53:02.842Z,22.41
2022-07-29T07:55:30.714Z,22.57
2022-07-29T07:58:16.962Z,22.71
2022-07-29T08:00:43.598Z,22.90
2022-07-29T08:03:16.798Z,22.96
2022-07-29T08:05:44.614Z,23.49
2022-07-29T08:08:12.263Z,23.48
2022-07-29T08:10:54.096Z,24.04
2022-07-29T08:13:22.207Z,24.09
2022-07-29T08:15:58.487Z,23.94
2022-07-29T08:18:26.292Z,23.95
2022-07-29T08:20:52.887Z,24.42
2022-07-29T08:23:20.163Z,24.54
2022-07-29T08:25:50.045Z,25.01
2022-07-29T08:28:18.222Z,24.66
2022-07-29T08:30:44.993Z,25.39
2022-07-29T08:33:13.191Z,25.77
2022-07-29T08:35:39.824Z,25.27
2022-07-29T08:38:06.707Z,24.86
2022-07-29T08:40:33.451Z,24.91
2022-07-29T08:43:06.477Z,24.85
2022-07-29T08:45:44.795Z,25.08
2022-07-29T08:48:16.176Z,25.44
2022-07-29T08:50:46.278Z,25.82
2022-07-29T08:53:15.559Z,26.09
2022-07-29T08:55:49.097Z,26.17
2022-07-29T08:58:16.384Z,25.99
2022-07-29T09:00:46.925Z,25.71
2022-07-29T09:03:19.225Z,25.62
2022-07-29T09:05:49.100Z,26.07
2022-07-29T09:08:17.567Z,26.01
2022-07-29T09:10:45.286Z,25.48
2022-07-29T09:13:12.040Z,25.26
2022-07-29T09:15:38.518Z,25.25
2022-07-29T09:18:05.031Z,24.95
2022-07-29T09:20:51.518Z,25.10
2022-07-29T09:23:24.143Z,25.08
2022-07-29T09:25:51.596Z,24.72
2022-07-29T09:28:18.846Z,24.75
2022-07-29T09:30:56.492Z,24.78
2022-07-29T09:33:24.165Z,25.18
2022-07-29T09:36:08.086Z,25.23
2022-07-29T09:38:36.233Z,24.98
2022-07-29T09:41:06.515Z,25.06
2022-07-29T09:43:34.734Z,24.77
2022-07-29T09:46:14.356Z,24.86
2022-07-29T09:48:41.048Z,24.49
2022-07-29T09:51:25.489Z,24.79
2022-07-29T09:53:55.331Z,24.62
2022-07-29T09:56:39.237Z,24.66
2022-07-29T09:59:10.170Z,24.84
2022-07-29T10:01:37.029Z,25.37
2022-07-29T10:04:03.802Z,25.41
2022-07-29T10:06:30.371Z,25.22
2022-07-29T10:09:09.207Z,25.25
2022-07-29T10:11:49.158Z,25.35
2022-07-29T10:14:22.898Z,25.21
2022-07-29T10:16:49.457Z,25.51
2022-07-29T10:19:16.317Z,25.65
2022-07-29T10:21:45.072Z,25.63
2022-07-29T10:24:14.844Z,25.67
2022-07-29T10:26:43.932Z,25.87
2022-07-29T10:29:10.625Z,25.73
2022-07-29T10:31:50.946Z,25.96
2022-07-29T10:34:32.702Z,25.53
2022-07-29T10:37:20.585Z,25.92
2022-07-29T10:40:35.838Z,25.85
2022-07-29T10:43:23.226Z,25.79
2022-07-29T10:45:58.102Z,25.91
2022-07-29T10:48:25.139Z,26.20
2022-07-29T10:50:56.334Z,26.30
2022-07-29T10:53:46.278Z,26.37
2022-07-29T10:56:31.935Z,26.33
2022-07-29T10:59:21.504Z,25.98
2022-07-29T11:01:59.875Z,26.39
2022-07-29T11:04:46.989Z,26.95
2022-07-29T11:07:15.246Z,27.10
2022-07-29T11:09:42.367Z,26.29
2022-07-29T11:12:39.268Z,26.30
2022-07-29T11:15:18.243Z,26.57
2022-07-29T11:18:01.620Z,26.82
2022-07-29T11:20:49.851Z,27.03
2022-07-29T11:23:20.813Z,26.83
2022-07-29T11:26:23.425Z,27.21
2022-07-29T11:29:04.266Z,26.65
2022-07-29T11:31:45.416Z,26.31
2022-07-29T11:34:28.205Z,26.58
2022-07-29T11:37:14.455Z,26.50
2022-07-29T11:39:43.500Z,26.09
2022-07-29T11:42:32.347Z,26.01
2022-07-29T11:45:43.489Z,26.11
2022-07-29T11:48:29.316Z,26.04
2022-07-29T11:50:51.860Z,26.06
2022-07-29T11:53:18.590Z,26.32
2022-07-29T11:55:51.331Z,26.53
2022-07-29T11:58:25.126Z,26.64
2022-07-29T12:00:53.316Z,26.56
2022-07-29T12:03:33.427Z,26.33
2022-07-29T12:06:02.556Z,26.41
2022-07-29T12:08:29.268Z,26.17
2022-07-29T12:10:55.937Z,25.92
2022-07-29T12:13:22.931Z,26.03
2022-07-29T12:16:04.179Z,26.15
2022-07-29T12:18:30.825Z,26.31
2022-07-29T12:20:59.145Z,26.15
2022-07-29T12:23:34.293Z,26.27
2022-07-29T12:26:07.418Z,26.53
2022-07-29T12:28:40.101Z,26.53
2022-07-29T12:31:08.254Z,27.01
2022-07-29T12:33:36.153Z,26.58
2022-07-29T12:36:10.306Z,26.09
2022-07-29T12:38:41.236Z,26.01
2022-07-29T12:41:08.015Z,26.32
2022-07-29T12:43:34.612Z,26.47
2022-07-29T12:46:14.359Z,26.54
2022-07-29T12:48:43.653Z,26.32
2022-07-29T12:51:13.426Z,26.28
2022-07-29T12:53:40.462Z,26.65
2022-07-29T12:56:45.365Z,26.61
2022-07-29T12:59:16.751Z,26.53
2022-07-29T13:01:44.000Z,26.87
2022-07-29T13:04:10.775Z,26.72
2022-07-29T13:06:45.731Z,27.16
2022-07-29T13:09:23.539Z,27.14
2022-07-29T13:11:54.377Z,26.98
2022-07-29T13:14:35.246Z,27.24
2022-07-29T13:17:11.126Z,26.73
2022-07-29T13:19:44.704Z,27.13
2022-07-29T13:22:13.568Z,27.24
2022-07-29T13:24:58.033Z,27.06
2022-07-29T13:27:27.531Z,26.87
2022-07-29T13:29:57.559Z,26.87
2022-07-29T13:32:27.825Z,26.97
2022-07-29T13:34:57.398Z,27.07
2022-07-29T13:37:24.017Z,26.76
2022-07-29T13:39:52.697Z,27.11
2022-07-29T13:42:19.962Z,27.16
2022-07-29T13:44:46.671Z,27.27
2022-07-29T13:47:13.960Z,26.93
2022-07-29T13:49:40.797Z,26.57
2022-07-29T13:52:08.460Z,26.73
2022-07-29T13:54:42.030Z,26.91
2022-07-29T13:57:11.730Z,27.05
2022-07-29T13:59:39.131Z,27.23
2022-07-29T14:02:06.534Z,27.39
2022-07-29T14:04:33.647Z,27.13
2022-07-29T14:07:00.360Z,26.99
2022-07-29T14:09:41.165Z,26.94
2022-07-29T14:12:09.026Z,26.87
2022-07-29T14:14:37.490Z,26.75
2022-07-29T14:17:04.645Z,26.96
2022-07-29T14:19:33.049Z,26.77
2022-07-29T14:22:00.099Z,26.71
2022-07-29T14:24:27.029Z,26.51
2022-07-29T14:26:53.720Z,26.39
2022-07-29T14:29:20.341Z,26.08
2022-07-29T14:31:47.007Z,26.36
2022-07-29T14:34:13.684Z,26.33
2022-07-29T14:36:40.333Z,26.70
2022-07-29T14:39:06.853Z,27.00
2022-07-29T14:41:33.795Z,27.16
2022-07-29T14:44:03.128Z,26.75
2022-07-29T14:46:29.853Z,26.86
2022-07-29T14:48:56.548Z,27.13
2022-07-29T14:51:23.141Z,27.22
2022-07-29T14:53:49.718Z,27.18
2022-07-29T14:56:36.006Z,27.09
2022-07-29T14:59:02.901Z,26.92
2022-07-29T15:01:30.131Z,26.78
2022-07-29T15:03:59.677Z,26.69
2022-07-29T15:06:27.422Z,26.44
2022-07-29T15:08:54.030Z,26.44
2022-07-29T15:11:21.089Z,26.23
2022-07-29T15:13:47.790Z,26.14
2022-07-29T15:16:14.294Z,26.04
2022-07-29T15:18:40.977Z,25.82
2022-07-29T15:21:08.541Z,25.83
2022-07-29T15:23:38.017Z,25.82
2022-07-29T15:26:05.560Z,25.67
2022-07-29T15:28:32.163Z,25.84
2022-07-29T15:30:59.291Z,25.95
2022-07-29T15:33:26.662Z,26.35
2022-07-29T15:35:54.159Z,26.51
2022-07-29T15:38:20.730Z,26.59
2022-07-29T15:40:55.824Z,26.62
2022-07-29T15:43:22.814Z,26.38
2022-07-29T15:46:08.167Z,26.32
2022-07-29T15:48:39.049Z,26.38
2022-07-29T15:51:05.904Z,26.35
2022-07-29T15:53:32.499Z,26.34
2022-07-29T15:56:02.168Z,25.99
2022-07-29T15:58:28.978Z,25.73
2022-07-29T16:00:55.700Z,25.66
2022-07-29T16:03:22.920Z,25.48
2022-07-29T16:05:49.495Z,25.50
2022-07-29T16:08:16.012Z,25.65
2022-07-29T16:10:42.552Z,25.66
2022-07-29T16:13:09.194Z,25.70
2022-07-29T16:15:35.771Z,25.76
2022-07-29T16:18:02.315Z,25.79
2022-07-29T16:20:29.661Z,25.65
2022-07-29T16:22:56.188Z,25.62
2022-07-29T16:25:38.414Z,25.55
2022-07-29T16:28:09.511Z,25.63
2022-07-29T16:30:36.430Z,25.73
2022-07-29T16:33:07.790Z,25.63
2022-07-29T16:35:39.763Z,25.44
2022-07-29T16:38:06.666Z,25.55
2022-07-29T16:40:33.404Z,25.39
2022-07-29T16:43:00.004Z,25.26
2022-07-29T16:45:26.788Z,25.30
2022-07-29T16:48:00.956Z,25.30
2022-07-29T16:50:28.838Z,25.44
2022-07-29T16:52:56.081Z,25.41
2022-07-29T16:55:22.659Z,25.49
2022-07-29T16:57:52.598Z,25.44
2022-07-29T17:00:19.966Z,25.33
2022-07-29T17:02:46.569Z,25.19
2022-07-29T17:05:13.125Z,25.13
2022-07-29T17:07:40.843Z,25.13
2022-07-29T17:10:08.433Z,25.13
2022-07-29T17:12:36.532Z,25.06
2022-07-29T17:15:04.693Z,24.98
2022-07-29T17:17:39.468Z,24.87
2022-07-29T17:20:18.110Z,24.76
2022-07-29T17:22:44.646Z,24.73
2022-07-29T17:25:11.736Z,24.62
2022-07-29T17:27:47.414Z,24.60
2022-07-29T17:30:14.011Z,24.51
2022-07-29T17:32:40.553Z,24.43
2022-07-29T17:35:28.192Z,24.37
2022-07-29T17:37:54.969Z,24.38
2022-07-29T17:40:21.806Z,24.32
2022-07-29T17:42:48.343Z,24.29
2022-07-29T17:45:14.896Z,24.18
2022-07-29T17:47:41.875Z,24.05
2022-07-29T17:50:08.668Z,23.96
2022-07-29T17:52:35.234Z,23.88
2022-07-29T17:55:02.536Z,23.79
2022-07-29T17:57:29.107Z,23.71
2022-07-29T17:59:55.610Z,23.63
2022-07-29T18:02:22.275Z,23.56
2022-07-29T18:04:51.682Z,23.48
2022-07-29T18:07:18.615Z,23.40
2022-07-29T18:09:45.310Z,23.34
2022-07-29T18:12:11.840Z,23.30
2022-07-29T18:14:38.653Z,23.30
2022-07-29T18:17:05.161Z,23.29
2022-07-29T18:19:31.696Z,23.25
2022-07-29T18:22:03.172Z,23.24
2022-07-29T18:24:31.909Z,23.21
2022-07-29T18:26:58.612Z,23.19
2022-07-29T18:29:25.643Z,23.18
2022-07-29T18:31:52.138Z,23.15
2022-07-29T18:34:18.667Z,23.15
2022-07-29T18:36:45.926Z,23.09
2022-07-29T18:39:20.047Z,23.09
2022-07-29T18:41:50.381Z,22.99
2022-07-29T18:44:18.257Z,22.91
2022-07-29T18:46:47.924Z,22.83
2022-07-29T18:49:23.291Z,22.75
2022-07-29T18:51:50.623Z,22.69
2022-07-29T18:54:17.645Z,22.62
2022-07-29T18:56:45.806Z,22.59
2022-07-29T18:59:16.749Z,22.56
2022-07-29T19:01:44.282Z,22.52
2022-07-29T19:04:10.988Z,22.50
2022-07-29T19:06:37.522Z,22.42
2022-07-29T19:09:04.355Z,22.38
2022-07-29T19:11:31.031Z,22.29
2022-07-29T19:13:57.694Z,22.20
2022-07-29T19:16:24.275Z,22.08
2022-07-29T19:18:50.877Z,21.95
2022-07-29T19:21:17.527Z,21.81
2022-07-29T19:24:05.176Z,21.72
2022-07-29T19:26:30.906Z,21.59
2022-07-29T19:28:57.538Z,21.47
2022-07-29T19:31:24.129Z,21.38
2022-07-29T19:33:50.913Z,21.29
2022-07-29T19:36:17.440Z,21.22
2022-07-29T19:38:43.931Z,21.14
2022-07-29T19:41:10.499Z,21.06
2022-07-29T19:43:49.653Z,21.00
2022-07-29T19:46:18.884Z,20.91
2022-07-29T19:48:45.687Z,20.81
2022-07-29T19:51:12.301Z,20.73
2022-07-29T19:53:38.976Z,20.67
2022-07-29T19:56:05.601Z,20.60
2022-07-29T19:58:35.880Z,20.55
2022-07-29T20:01:02.777Z,20.51
2022-07-29T20:03:39.712Z,20.37
2022-07-29T20:06:06.776Z,20.28
2022-07-29T20:08:33.608Z,20.20
2022-07-29T20:11:00.110Z,20.14
2022-07-29T20:13:26.667Z,20.07
2022-07-29T20:15:53.443Z,20.04
2022-07-29T20:18:20.028Z,19.96
2022-07-29T20:20:48.279Z,19.89
2022-07-29T20:23:16.399Z,19.81
2022-07-29T20:25:42.946Z,19.75
2022-07-29T20:28:09.759Z,19.67
2022-07-29T20:30:38.542Z,19.57
2022-07-29T20:33:05.817Z,19.48
2022-07-29T20:35:32.660Z,19.45
2022-07-29T20:38:00.437Z,19.44
2022-07-29T20:40:27.821Z,19.51
2022-07-29T20:42:55.226Z,19.51
2022-07-29T20:45:23.469Z,19.46
2022-07-29T20:47:51.803Z,19.44
2022-07-29T20:50:23.729Z,19.44
2022-07-29T20:52:51.087Z,19.43
2022-07-29T20:55:17.724Z,19.35
2022-07-29T20:57:45.761Z,19.32
2022-07-29T21:00:12.682Z,19.31
2022-07-29T21:02:39.485Z,19.30
2022-07-29T21:05:06.505Z,19.29
2022-07-29T21:07:34.235Z,19.28
2022-07-29T21:10:00.812Z,19.26
2022-07-29T21:12:29.404Z,19.23
2022-07-29T21:14:56.019Z,19.23
2022-07-29T21:17:22.928Z,19.28
2022-07-29T21:19:52.641Z,19.28
2022-07-29T21:22:23.323Z,19.24
2022-07-29T21:24:50.037Z,19.15
2022-07-29T21:27:38.101Z,19.06
2022-07-29T21:30:07.181Z,18.94
2022-07-29T21:32:33.911Z,18.83
2022-07-29T21:35:00.836Z,18.75
2022-07-29T21:37:28.078Z,18.68
2022-07-29T21:39:54.800Z,18.59
2022-07-29T21:42:21.625Z,18.48
2022-07-29T21:44:48.232Z,18.45
2022-07-29T21:47:14.807Z,18.41
2022-07-29T21:49:42.776Z,18.34
2022-07-29T21:52:09.400Z,18.27
2022-07-29T21:54:36.487Z,18.26
2022-07-29T21:57:03.876Z,18.31
2022-07-29T21:59:31.582Z,18.33
2022-07-29T22:02:01.077Z,18.26
2022-07-29T22:04:31.715Z,18.28
2022-07-29T22:07:00.971Z,18.30
2022-07-29T22:09:28.358Z,18.37
2022-07-29T22:11:56.323Z,18.50
2022-07-29T22:14:23.102Z,18.52
2022-07-29T22:16:49.820Z,18.48
2022-07-29T22:19:16.527Z,18.38
2022-07-29T22:21:43.276Z,18.27
2022-07-29T22:24:12.503Z,18.18
2022-07-29T22:26:39.156Z,18.12
2022-07-29T22:29:06.507Z,18.07
2022-07-29T22:31:33.081Z,18.03
2022-07-29T22:33:59.605Z,18.04
2022-07-29T22:36:26.346Z,18.11
2022-07-29T22:38:53.011Z,18.08
2022-07-29T22:41:19.590Z,17.98
2022-07-29T22:43:46.275Z,17.91
2022-07-29T22:46:12.912Z,17.78
2022-07-29T22:48:39.569Z,17.71
2022-07-29T22:51:07.162Z,17.69
2022-07-29T22:53:33.750Z,17.68
2022-07-29T22:56:00.304Z,17.66
2022-07-29T22:58:26.960Z,17.64
2022-07-29T23:00:53.901Z,17.64
2022-07-29T23:03:21.127Z,17.61
2022-07-29T23:05:47.826Z,17.61
2022-07-29T23:08:14.610Z,17.70
2022-07-29T23:10:41.162Z,17.71
2022-07-29T23:13:07.660Z,17.67
2022-07-29T23:15:34.194Z,17.67
2022-07-29T23:18:00.979Z,17.64
2022-07-29T23:20:27.713Z,17.60
2022-07-29T23:22:54.416Z,17.58
2022-07-29T23:25:21.282Z,17.53
2022-07-29T23:27:47.860Z,17.50
2022-07-29T23:30:14.371Z,17.48
2022-07-29T23:32:40.954Z,17.44
2022-07-29T23:35:08.357Z,17.41
2022-07-29T23:37:35.054Z,17.38
2022-07-29T23:40:01.591Z,17.35
2022-07-29T23:42:28.092Z,17.31
2022-07-29T23:44:54.685Z,17.30
2022-07-29T23:47:23.447Z,17.30
2022-07-29T23:49:50.097Z,17.26
2022-07-29T23:52:17.501Z,17.24
2022-07-29T23:54:44.184Z,17.23
2022-07-29T23:57:10.718Z,17.25
2022-07-29T23:59:37.396Z,17.24
